Latest Weather Observations for Condobolin Airport

IDN60801

Issued at 5:02 pm EST Friday 31 July 2015 (issued every 30 minutes, with the page automatically refreshed every 10 minutes)

About weather observations | Map of weather stations | Latest weather observations for NSW | Other Formats
Station Details ID: 050137 Name: CONDOBOLIN AIRPORT AWS Lat: -33.07 Lon: 147.21 Height: 192.6 m
Data from the previous 72 hours. | See also: Recent months at Condobolin Airport
Date/Time
EST
Temp
°C
App
Temp
°C
Dew
Point
Rel
Hum
%
Delta-T
°C
Wind Press
QNH
hPa
Press
MSL
hPa
Rain
since 9 am
mm
Dir
 
Spd
km/h
Gust
km/h
Spd
kts
Gust
kts
31/05:00pm 16.5 15.6 7.7 56 4.4 W 2 7 1 4 1020.2 1020.5 0.0
31/04:30pm 16.6 14.8 7.0 53 4.8 W 6 9 3 5 1020.1 1020.4 0.0
31/04:00pm 16.2 14.6 6.3 52 4.9 SSW 4 9 2 5 1020.1 1020.4 0.0
31/03:30pm 17.2 15.1 6.7 50 5.2 WNW 7 13 4 7 1020.3 1020.6 0.0
31/03:00pm 16.9 15.4 7.0 52 4.9 SE 4 9 2 5 1020.5 1020.8 0.0
31/02:30pm 16.8 14.8 7.2 53 4.8 S 7 11 4 6 1020.5 1020.8 0.0
31/02:00pm 16.2 13.7 6.6 53 4.7 SSW 9 13 5 7 1020.8 1021.1 0.0
31/01:30pm 16.4 13.6 7.1 54 4.7 WSW 11 20 6 11 1021.0 1021.3 0.0
31/01:00pm 16.1 13.7 6.8 54 4.6 WSW 9 15 5 8 1021.5 1021.8 0.0
31/12:30pm 15.9 13.9 6.3 53 4.7 W 6 15 3 8 1022.1 1022.4 0.0
31/12:00pm 15.7 13.5 6.2 53 4.6 WNW 7 11 4 6 1022.3 1022.6 0.0
31/11:30am 14.6 12.3 5.9 56 4.2 WSW 7 11 4 6 1022.4 1022.7 0.0
31/11:00am 14.2 11.9 5.0 54 4.3 WNW 6 11 3 6 1022.4 1022.7 0.0
31/10:30am 13.1 10.6 4.8 57 3.9 W 7 11 4 6 1022.7 1023.0 0.0
31/10:00am 12.6 9.3 4.6 58 3.7 WNW 11 15 6 8 1022.8 1023.1 0.0
31/09:30am 11.3 7.5 4.1 61 3.3 WNW 13 17 7 9 1022.6 1022.9 0.0
31/09:00am 10.6 6.0 3.6 62 3.1 WNW 17 22 9 12 1022.3 1022.6 0.0
31/08:30am 10.1 6.3 4.0 66 2.7 WNW 13 17 7 9 1022.0 1022.3 0.0
31/08:00am 8.4 5.3 3.7 72 2.0 NW 9 11 5 6 1021.7 1022.0 0.0
31/07:30am 6.9 3.2 2.4 73 1.9 WNW 11 15 6 8 1021.4 1021.7 0.0
31/07:00am 6.2 1.7 2.3 76 1.6 NW 15 17 8 9 1021.1 1021.4 0.0
31/06:30am 6.6 1.8 2.5 75 1.7 NW 17 19 9 10 1020.8 1021.1 0.0
31/06:00am 7.7 3.3 2.8 71 2.1 WNW 15 19 8 10 1020.5 1020.8 0.0
31/05:30am 7.9 3.9 2.6 69 2.2 NW 13 17 7 9 1020.2 1020.5 0.0
31/05:00am 8.9 4.9 3.1 67 2.5 NW 13 17 7 9 1020.1 1020.4 0.0
31/04:30am 9.8 5.7 4.2 68 2.5 NNW 15 20 8 11 1020.0 1020.3 0.0
31/04:00am 7.0 4.4 4.3 83 1.2 N 7 11 4 6 1020.0 1020.3 0.0
31/03:30am 6.2 3.6 3.2 81 1.3 N 6 7 3 4 1020.2 1020.5 0.0
31/03:00am 6.7 3.6 3.5 80 1.4 N 9 9 5 5 1020.5 1020.8 0.0
31/02:30am 8.1 5.2 4.5 78 1.6 N 9 9 5 5 1020.8 1021.1 0.0
31/02:00am 8.1 5.6 4.7 79 1.5 NNE 7 9 4 5 1021.2 1021.5 0.0
31/01:30am 8.2 6.0 5.1 81 1.4 N 6 9 3 5 1021.3 1021.6 0.0
31/01:00am 7.8 6.7 5.1 83 1.2 CALM 0 0 0 0 1021.6 1021.9 0.0
31/12:30am 10.2 7.4 5.0 70 2.4 NNW 9 13 5 7 1021.3 1021.6 0.0
31/12:00am 8.4 5.8 4.4 76 1.8 NNW 7 11 4 6 1021.5 1021.8 0.0
 
Date/Time
EST
Temp
°C
App
Temp
°C
Dew
Point
Rel
Hum
%
Delta-T
°C
Wind Press
QNH
hPa
Press
MSL
hPa
Rain
since 9 am
mm
Dir
 
Spd
km/h
Gust
km/h
Spd
kts
Gust
kts
30/11:30pm 8.8 5.8 4.2 73 2.0 NW 9 11 5 6 1021.7 1022.0 0.0
30/11:00pm 8.8 5.8 4.2 73 2.0 NNW 9 13 5 7 1021.7 1022.0 0.0
30/10:30pm 9.8 6.1 4.4 69 2.4 NNW 13 17 7 9 1021.6 1021.9 0.0
30/10:00pm 10.6 7.3 4.5 66 2.8 NNW 11 15 6 8 1021.7 1022.0 0.0
30/09:30pm 10.0 7.1 4.6 69 2.4 NNW 9 15 5 8 1021.7 1022.0 0.0
30/09:00pm 10.6 6.2 4.9 68 2.6 N 17 20 9 11 1021.3 1021.6 0.0
30/08:30pm 9.9 5.7 5.7 75 1.9 NNE 17 19 9 10 1021.3 1021.6 0.0
30/08:00pm 9.1 5.3 6.0 81 1.4 NNE 15 17 8 9 1021.3 1021.6 0.0
30/07:30pm 9.1 4.9 5.5 78 1.6 NNE 17 19 9 10 1021.2 1021.5 0.0
30/07:00pm 9.9 5.6 5.3 73 2.1 N 17 17 9 9 1021.4 1021.7 0.0
30/06:30pm 11.6 7.8 5.7 67 2.8 N 15 17 8 9 1021.7 1022.0 0.0
30/06:00pm 11.0 7.6 6.0 71 2.3 N 13 15 7 8 1021.7 1022.0 0.0
30/05:30pm 11.7 8.3 5.8 67 2.8 N 13 15 7 8 1021.6 1021.9 0.0
30/05:00pm 12.2 8.6 5.1 62 3.3 N 13 17 7 9 1021.7 1022.0 0.0
30/04:30pm 14.2 10.0 3.9 50 4.7 N 15 17 8 9 1021.9 1022.2 0.0
30/04:00pm 14.2 9.8 4.8 53 4.4 N 17 22 9 12 1022.0 1022.3 0.0
30/03:30pm 14.2 8.2 3.4 48 4.9 N 24 32 13 17 1022.0 1022.3 0.0
30/03:00pm 15.1 9.5 3.6 46 5.3 N 22 30 12 16 1022.3 1022.6 0.0
30/02:30pm 15.0 10.1 4.1 48 5.1 N 19 26 10 14 1022.9 1023.2 0.0
30/02:00pm 15.5 10.2 3.0 43 5.7 NNW 20 26 11 14 1023.5 1023.9 0.0
30/01:30pm 14.9 9.8 4.0 48 5.1 N 20 30 11 16 1023.7 1024.1 0.0
30/01:00pm 14.2 8.5 3.1 47 5.0 NNW 22 30 12 16 1024.7 1025.1 0.0
30/12:30pm 14.4 8.4 3.5 48 5.0 NNW 24 33 13 18 1024.7 1025.1 0.0
30/12:00pm 14.0 8.0 3.5 49 4.8 N 24 30 13 16 1025.2 1025.5 0.0
30/11:30am 13.1 6.8 3.5 52 4.3 N 26 35 14 19 1025.9 1026.2 0.0
30/11:00am 13.1 7.2 4.0 54 4.1 N 24 33 13 18 1026.3 1026.6 0.0
30/10:30am 12.4 6.9 3.9 56 3.9 N 22 26 12 14 1026.7 1027.0 0.0
30/10:00am 11.8 6.9 5.0 63 3.1 N 20 26 11 14 1026.8 1027.1 0.0
30/09:30am 10.8 6.0 4.9 67 2.7 N 19 26 10 14 1026.9 1027.2 0.0
30/09:00am 8.8 6.8 6.4 85 1.1 NNE 6 15 3 8 1027.1 1027.4 0.0
30/08:30am 5.3 4.2 5.0 98 0.1 CALM 0 0 0 0 1027.2 1027.5 0.0
30/08:00am 3.1 1.6 3.0 99 0.0 CALM 0 0 0 0 1027.2 1027.5 0.0
30/07:30am 0.4 -1.5 0.3 99 0.0 CALM 0 0 0 0 1027.2 1027.5 0.0
30/07:00am -0.5 -2.6 -0.9 97 0.1 CALM 0 0 0 0 1026.7 1027.0 0.0
30/06:30am -0.2 -2.3 -0.6 97 0.1 CALM 0 0 0 0 1026.6 1026.9 0.0
30/06:00am 0.2 -2.9 -0.1 98 0.1 ESE 6 7 3 4 1026.5 1026.8 0.0
30/05:30am 0.1 -3.1 -0.3 97 0.2 ENE 6 7 3 4 1026.3 1026.6 0.0
30/05:00am 0.5 -2.8 0.1 97 0.1 ESE 7 9 4 5 1026.2 1026.5 0.0
30/04:30am 1.1 -0.8 0.8 98 0.1 CALM 0 6 0 3 1026.4 1026.7 0.0
30/04:00am 1.5 -1.6 1.1 97 0.2 NNE 7 9 4 5 1026.6 1026.9 0.0
30/03:30am 1.3 -0.6 0.7 96 0.2 CALM 0 0 0 0 1027.0 1027.3 0.0
30/03:00am 2.1 0.4 1.7 97 0.2 CALM 0 0 0 0 1027.4 1027.7 0.0
30/02:30am 2.5 0.8 1.9 96 0.2 CALM 0 0 0 0 1027.7 1028.0 0.0
30/02:00am 2.8 1.1 2.1 95 0.3 CALM 0 0 0 0 1028.0 1028.4 0.0
30/01:30am 3.3 1.7 2.6 95 0.3 CALM 0 0 0 0 1028.2 1028.6 0.0
30/01:00am 3.8 2.3 2.9 94 0.4 CALM 0 0 0 0 1028.4 1028.8 0.0
30/12:30am 4.1 2.7 3.4 95 0.3 CALM 0 0 0 0 1028.6 1029.0 0.0
30/12:00am 4.2 2.7 3.0 92 0.5 CALM 0 0 0 0 1028.7 1029.1 0.0
 
Date/Time
EST
Temp
°C
App
Temp
°C
Dew
Point
Rel
Hum
%
Delta-T
°C
Wind Press
QNH
hPa
Press
MSL
hPa
Rain
since 9 am
mm
Dir
 
Spd
km/h
Gust
km/h
Spd
kts
Gust
kts
29/11:30pm 5.0 2.5 3.7 91 0.5 NNW 6 9 3 5 1028.7 1029.1 0.0
29/11:00pm 5.2 2.6 4.2 93 0.4 ENE 7 11 4 6 1028.6 1029.0 0.0
29/10:30pm 5.6 4.4 4.4 92 0.5 CALM 0 0 0 0 1029.3 1029.7 0.0
29/10:00pm 5.9 3.4 4.9 93 0.4 NE 7 9 4 5 1029.4 1029.8 0.0
29/09:30pm 6.4 4.1 4.9 90 0.7 WSW 6 9 3 5 1029.6 1030.0 0.0
29/09:00pm 6.7 5.6 4.9 88 0.8 CALM 0 0 0 0 1029.8 1030.2 0.0
29/08:30pm 7.5 5.1 4.5 81 1.3 NW 6 7 3 4 1029.5 1029.9 0.0
29/08:00pm 7.6 5.4 5.2 85 1.1 NW 6 7 3 4 1029.5 1029.9 0.0
29/07:30pm 8.1 7.1 5.4 83 1.2 CALM 0 0 0 0 1029.4 1029.8 0.0
29/07:00pm 9.1 6.9 6.0 81 1.4 E 7 11 4 6 1029.6 1030.0 0.0
29/06:30pm 9.4 7.3 5.8 78 1.7 NW 6 9 3 5 1029.6 1030.0 0.0
29/06:00pm 10.3 8.5 5.3 71 2.3 NNW 4 6 2 3 1029.3 1029.7 0.0
29/05:30pm 11.2 8.9 4.9 65 2.9 N 6 7 3 4 1029.1 1029.5 0.0
29/05:00pm 12.8 9.8 4.3 56 3.9 NW 9 11 5 6 1029.6 1030.0 0.0
29/04:30pm 14.5 11.3 3.0 46 5.2 N 9 13 5 7 1029.1 1029.5 0.0
29/04:00pm 14.6 11.0 3.1 46 5.2 NNW 11 19 6 10 1029.0 1029.4 0.0
29/03:30pm 15.9 13.0 2.7 41 6.0 NW 7 13 4 7 1029.6 1030.0 0.0
29/03:00pm 15.8 12.9 1.2 37 6.4 N 6 15 3 8 1030.1 1030.5 0.0
29/02:30pm 15.6 11.8 1.7 39 6.2 NW 11 17 6 9 1030.2 1030.6 0.0
29/02:00pm 15.0 12.0 4.1 48 5.0 ENE 9 15 5 8 1029.8 1030.2 0.0
29/01:30pm 14.7 10.2 4.4 50 4.8 NE 17 22 9 12 1030.1 1030.5 0.0
29/01:00pm 14.9 12.3 6.0 55 4.3 E 9 15 5 8 1031.4 1031.7 0.0
29/12:30pm 13.3 10.9 5.2 58 3.8 E 7 13 4 7 1032.0 1032.3 0.0
29/12:00pm 12.6 10.3 5.5 62 3.3 ESE 7 15 4 8 1032.9 1033.3 0.0
29/11:30am 11.9 8.9 6.2 68 2.7 E 11 15 6 8 1033.4 1033.8 0.0
29/11:00am 10.7 8.1 6.3 74 2.1 ESE 9 13 5 7 1033.8 1034.2 0.0
29/10:30am 9.4 7.0 6.8 84 1.2 ESE 9 13 5 7 1034.0 1034.4 0.0
29/10:00am 7.9 5.6 7.6 98 0.1 ESE 9 13 5 7 1034.3 1034.7 0.0
29/09:30am 4.9 2.6 4.8 99 0.0 ESE 6 7 3 4 1034.4 1034.8 0.0
29/09:00am 3.9 2.2 3.8 99 0.0 ESE 2 9 1 5 1034.6 1035.0 0.0
29/08:30am 2.5 0.9 2.4 99 0.0 CALM 0 0 0 0 1034.4 1034.8 0.0
29/08:00am 0.8 -1.1 0.7 99 0.0 CALM 0 0 0 0 1034.4 1034.8 0.0
29/07:30am -0.2 -2.2 -0.3 99 0.0 CALM 0 0 0 0 1034.4 1034.8 0.0
29/07:00am -0.3 -2.3 -0.4 99 0.0 CALM 0 0 0 0 1034.0 1034.4 0.0
29/06:30am -0.2 -2.2 -0.3 99 0.0 CALM 0 0 0 0 1033.7 1034.1 0.0
29/06:00am 0.2 -1.8 0.1 99 0.0 CALM 0 0 0 0 1033.4 1033.8 0.0
29/05:30am 0.2 -1.8 -0.1 98 0.1 CALM 0 0 0 0 1033.3 1033.7 0.0
29/05:00am 0.3 -2.4 0.0 98 0.1 ENE 4 7 2 4 1033.3 1033.7 0.0
29/04:30am 0.7 -2.9 0.4 98 0.1 NNE 9 11 5 6 1033.4 1033.8 0.0
29/04:00am 0.9 -1.0 0.5 97 0.1 CALM 0 0 0 0 1033.1 1033.5 0.0
29/03:30am 1.6 -0.2 1.0 96 0.2 CALM 0 0 0 0 1033.1 1033.5 0.0
29/03:00am 2.4 0.7 2.1 98 0.1 CALM 0 0 0 0 1033.3 1033.7 0.0
29/02:30am 2.9 1.3 2.3 96 0.2 CALM 0 0 0 0 1033.4 1033.8 0.0
29/02:00am 2.9 1.2 2.0 94 0.4 CALM 0 0 0 0 1033.9 1034.3 0.0
29/01:30am 2.9 1.2 1.6 91 0.5 CALM 0 0 0 0 1033.8 1034.2 0.0
29/01:00am 3.9 2.3 2.7 92 0.5 CALM 0 0 0 0 1033.8 1034.2 0.0
29/12:30am 4.5 3.0 3.0 90 0.6 CALM 0 0 0 0 1033.5 1033.9 0.0
29/12:00am 5.4 4.0 3.4 87 0.8 CALM 0 6 0 3 1034.1 1034.5 0.0
 
Date/Time
EST
Temp
°C
App
Temp
°C
Dew
Point
Rel
Hum
%
Delta-T
°C
Wind Press
QNH
hPa
Press
MSL
hPa
Rain
since 9 am
mm
Dir
 
Spd
km/h
Gust
km/h
Spd
kts
Gust
kts
28/11:30pm 6.1 2.9 3.3 82 1.2 SSW 9 11 5 6 1034.3 1034.7 0.0
28/11:00pm 8.4 5.6 5.0 79 1.5 S 9 11 5 6 1034.1 1034.5 0.0
28/10:30pm 9.3 6.7 5.9 79 1.6 S 9 13 5 7 1034.3 1034.7 0.0
28/10:00pm 9.2 6.9 5.8 79 1.6 SSE 7 9 4 5 1034.4 1034.8 0.0
28/09:30pm 9.3 6.9 5.3 76 1.8 SSW 7 7 4 4 1034.5 1034.9 0.0
28/09:00pm 9.8 7.5 5.0 72 2.2 S 6 7 3 4 1034.4 1034.8 0.0
28/08:30pm 10.0 7.5 4.8 70 2.4 S 7 9 4 5 1034.4 1034.8 0.0
28/08:00pm 10.0 7.5 5.0 71 2.3 S 7 9 4 5 1034.3 1034.7 0.0
28/07:30pm 9.8 7.1 5.4 74 2.0 SSW 9 13 5 7 1034.2 1034.6 0.0
28/07:00pm 9.7 7.0 5.5 75 1.9 S 9 13 5 7 1034.1 1034.5 0.0
28/06:30pm 10.3 8.0 4.9 69 2.5 S 6 9 3 5 1033.8 1034.2 0.0
28/06:00pm 10.8 8.3 4.5 65 2.8 S 7 13 4 7 1033.6 1034.0 0.0
28/05:30pm 10.8 7.9 4.9 67 2.7 S 9 11 5 6 1033.4 1033.8 0.0

Other Formats:

Comma delimited format used in spreadsheet applications
http://www.bom.gov.au/fwo/IDN60801/IDN60801.95708.axf

JavaScript Object Notation format (JSON) in row-major order
http://www.bom.gov.au/fwo/IDN60801/IDN60801.95708.json